Britt, IA

8:24 PM CDT on August 31, 2015 (GMT -0500)
273 1st ST SW | | Change Station
CLOSE
Current Station
Personal Weather Station
Location: Britt, IA
Elevation: 1214 ft
Nearby Weather Stations

Elev 1214 ft 43.10 °N, 93.81 °W | Updated 5 seconds ago

Clear
Clear
74.5 °F
Feels Like 74 °F
N
0.0
Wind Variable Wind from SSW
Gusts 0.0 mph

Today
High -- | Low -- °F
--% Chance of Precip.
Yesterday
High -- | Low -- °F
Precip. -- in
6:38 AM 7:52 PM
Waning Gibbous, 92% visible
Pressure 29.94 in
Visibility 7.0 miles
Clouds Clear
Heat Index 74 °F
Dew Point 71 °F
Humidity 88%
Rainfall 0.01 in
Snow Depth Not available.
UV 0 out of 12
Pollen 10.80 out of 12
Air Quality Not available.
Flu Activity Not available.
METAR KFXY 010115Z AUTO 17004KT 7SM CLR 21/21 A2994 RMK AO2
Pressure 29.94 in
Visibility 7.0 miles
Clouds Clear
Heat Index 74 °F
Dew Point 71 °F
Humidity 88%
Rainfall 0.01 in
Snow Depth Not available.
UV 0 out of 12
Pollen 10.80 out of 12
Air Quality Not available.
Flu Activity Not available.
METAR KFXY 010115Z AUTO 17004KT 7SM CLR 21/21 A2994 RMK AO2

10-Day Weather Forecast

×

Almanac

Astronomy

Aug. 31, 2015 Rise Set
Actual Time
Civil Twilight
Nautical Twilight
Astronomical Twilight
Moon
Length of Visible Light
Length of Day
Tomorrow will be .
, % of the Moon is Illuminated

Today's Extremes

State Highs State Lows

Community

WunderPhotos

Upload Photos

1,851,416 photos uploaded!

WunderBlogs® & News

Nearby

Air Quality

  Air Quality AQ Index Pollutant
Not available.

Snow Depth

Station Depth Elevation

Earthquake Activity

City Distance Mag. Time & Date
Minimum magnitude displayed is 2.5.

Coastal Water Temperatures

Place Temperature

Stations

Nearby Weather Stations

Station Location Temp. Windchill Dew Point Humidity Wind Precip. Elev Updated Type